sensor_id;sensor_type;location;lat;lon;timestamp;pressure;altitude;pressure_sealevel;temperature;humidity
31595;BME280;18200;48.726;8.892;2023-04-05T00:03:38;97255.94;;;12.46;34.48
31595;BME280;18200;48.726;8.892;2023-04-05T00:07:39;97250.41;;;12.59;33.24
31595;BME280;18200;48.726;8.892;2023-04-05T00:11:40;97241.56;;;13.00;33.44
31595;BME280;18200;48.726;8.892;2023-04-05T00:15:40;97239.97;;;13.41;32.58
31595;BME280;18200;48.726;8.892;2023-04-05T00:19:41;97233.19;;;13.50;32.13
31595;BME280;18200;48.726;8.892;2023-04-05T00:23:42;97230.50;;;13.28;32.34
31595;BME280;18200;48.726;8.892;2023-04-05T00:27:44;97234.75;;;12.64;32.02
31595;BME280;18200;48.726;8.892;2023-04-05T00:31:45;97225.25;;;12.51;32.76
31595;BME280;18200;48.726;8.892;2023-04-05T00:35:45;97225.78;;;12.79;32.98
31595;BME280;18200;48.726;8.892;2023-04-05T00:39:46;97226.03;;;13.35;32.55
31595;BME280;18200;48.726;8.892;2023-04-05T00:43:46;97217.00;;;12.63;33.29
31595;BME280;18200;48.726;8.892;2023-04-05T00:47:46;97209.19;;;13.00;32.25
31595;BME280;18200;48.726;8.892;2023-04-05T00:51:47;97196.41;;;12.74;32.06
31595;BME280;18200;48.726;8.892;2023-04-05T00:55:48;97201.63;;;11.87;34.10
31595;BME280;18200;48.726;8.892;2023-04-05T00:59:49;97199.38;;;12.08;34.02
31595;BME280;18200;48.726;8.892;2023-04-05T01:03:58;97193.00;;;12.16;34.33
31595;BME280;18200;48.726;8.892;2023-04-05T01:12:08;97182.72;;;12.83;33.29
31595;BME280;18200;48.726;8.892;2023-04-05T01:16:09;97187.78;;;13.07;32.67
31595;BME280;18200;48.726;8.892;2023-04-05T01:20:11;97186.97;;;12.84;31.80
31595;BME280;18200;48.726;8.892;2023-04-05T01:33:16;97174.34;;;12.46;33.44
31595;BME280;18200;48.726;8.892;2023-04-05T01:37:29;97169.59;;;12.39;32.62
31595;BME280;18200;48.726;8.892;2023-04-05T01:41:30;97169.16;;;11.80;34.49
31595;BME280;18200;48.726;8.892;2023-04-05T01:45:31;97165.31;;;12.58;33.25
31595;BME280;18200;48.726;8.892;2023-04-05T01:49:31;97169.31;;;12.25;33.84
31595;BME280;18200;48.726;8.892;2023-04-05T01:53:32;97160.63;;;12.55;33.33
31595;BME280;18200;48.726;8.892;2023-04-05T01:57:33;97153.72;;;12.34;32.17
31595;BME280;18200;48.726;8.892;2023-04-05T02:01:33;97159.19;;;12.19;33.10
31595;BME280;18200;48.726;8.892;2023-04-05T02:05:33;97142.41;;;11.87;33.78
31595;BME280;18200;48.726;8.892;2023-04-05T02:09:34;97157.72;;;12.21;33.65
31595;BME280;18200;48.726;8.892;2023-04-05T02:13:34;97145.97;;;12.52;33.64
31595;BME280;18200;48.726;8.892;2023-04-05T02:17:35;97150.28;;;11.96;33.92
31595;BME280;18200;48.726;8.892;2023-04-05T02:21:38;97143.75;;;12.58;33.29
31595;BME280;18200;48.726;8.892;2023-04-05T02:25:39;97134.78;;;12.73;32.25
31595;BME280;18200;48.726;8.892;2023-04-05T02:29:40;97135.84;;;12.45;32.08
31595;BME280;18200;48.726;8.892;2023-04-05T02:33:41;97140.41;;;12.22;33.79
31595;BME280;18200;48.726;8.892;2023-04-05T02:37:41;97136.16;;;12.63;32.89
31595;BME280;18200;48.726;8.892;2023-04-05T02:41:42;97128.19;;;12.48;31.92
31595;BME280;18200;48.726;8.892;2023-04-05T02:45:43;97142.91;;;11.58;33.94
31595;BME280;18200;48.726;8.892;2023-04-05T02:49:45;97145.31;;;11.63;34.40
31595;BME280;18200;48.726;8.892;2023-04-05T02:53:45;97152.47;;;11.90;33.38
31595;BME280;18200;48.726;8.892;2023-04-05T02:57:49;97145.38;;;11.82;33.94
31595;BME280;18200;48.726;8.892;2023-04-05T03:02:00;97145.38;;;12.20;33.34
31595;BME280;18200;48.726;8.892;2023-04-05T03:06:03;97138.00;;;11.98;33.04
31595;BME280;18200;48.726;8.892;2023-04-05T03:10:14;97138.66;;;12.11;33.06
31595;BME280;18200;48.726;8.892;2023-04-05T03:14:24;97127.44;;;12.09;32.55
31595;BME280;18200;48.726;8.892;2023-04-05T03:18:25;97132.31;;;11.84;32.22
31595;BME280;18200;48.726;8.892;2023-04-05T03:22:30;97136.94;;;11.49;33.80
31595;BME280;18200;48.726;8.892;2023-04-05T03:26:34;97135.16;;;11.72;34.30
31595;BME280;18200;48.726;8.892;2023-04-05T03:30:35;97118.94;;;11.34;34.11
31595;BME280;18200;48.726;8.892;2023-04-05T03:34:47;97121.19;;;11.32;34.85
31595;BME280;18200;48.726;8.892;2023-04-05T03:38:50;97117.84;;;11.54;34.58
31595;BME280;18200;48.726;8.892;2023-04-05T03:42:53;97129.47;;;11.58;34.28
31595;BME280;18200;48.726;8.892;2023-04-05T03:46:54;97119.38;;;11.55;33.83
31595;BME280;18200;48.726;8.892;2023-04-05T03:50:56;97123.63;;;11.37;34.45
31595;BME280;18200;48.726;8.892;2023-04-05T03:54:56;97119.38;;;11.55;34.26
31595;BME280;18200;48.726;8.892;2023-04-05T03:58:58;97125.84;;;10.69;34.49
31595;BME280;18200;48.726;8.892;2023-04-05T04:03:01;97121.50;;;10.96;35.12
31595;BME280;18200;48.726;8.892;2023-04-05T04:07:02;97115.25;;;10.76;34.77
31595;BME280;18200;48.726;8.892;2023-04-05T04:11:03;97129.91;;;10.47;35.29
31595;BME280;18200;48.726;8.892;2023-04-05T04:15:11;97122.28;;;10.80;35.37
31595;BME280;18200;48.726;8.892;2023-04-05T04:19:38;97112.59;;;10.91;35.37
31595;BME280;18200;48.726;8.892;2023-04-05T04:23:44;97112.75;;;10.67;35.33
31595;BME280;18200;48.726;8.892;2023-04-05T04:27:57;97114.94;;;10.77;35.42
31595;BME280;18200;48.726;8.892;2023-04-05T04:32:30;97110.44;;;10.81;35.38
31595;BME280;18200;48.726;8.892;2023-04-05T04:37:07;97109.41;;;10.27;34.97
31595;BME280;18200;48.726;8.892;2023-04-05T04:41:35;97122.97;;;9.91;36.15
31595;BME280;18200;48.726;8.892;2023-04-05T04:45:51;97119.09;;;10.16;35.46
31595;BME280;18200;48.726;8.892;2023-04-05T04:50:12;97117.44;;;10.55;35.72
31595;BME280;18200;48.726;8.892;2023-04-05T04:54:13;97122.34;;;10.22;36.31
31595;BME280;18200;48.726;8.892;2023-04-05T04:58:15;97128.59;;;10.57;35.28
31595;BME280;18200;48.726;8.892;2023-04-05T05:02:24;97123.59;;;10.12;35.24
31595;BME280;18200;48.726;8.892;2023-04-05T05:06:25;97133.84;;;10.22;35.10
31595;BME280;18200;48.726;8.892;2023-04-05T05:10:26;97139.19;;;9.67;35.20
31595;BME280;18200;48.726;8.892;2023-04-05T05:14:31;97139.22;;;10.22;36.23
31595;BME280;18200;48.726;8.892;2023-04-05T05:18:31;97140.44;;;9.85;35.24
31595;BME280;18200;48.726;8.892;2023-04-05T05:22:31;97134.75;;;9.22;36.01
31595;BME280;18200;48.726;8.892;2023-04-05T05:26:32;97127.84;;;8.97;36.80
31595;BME280;18200;48.726;8.892;2023-04-05T05:30:32;97135.13;;;9.73;36.66
31595;BME280;18200;48.726;8.892;2023-04-05T05:34:33;97123.34;;;9.50;36.38
31595;BME280;18200;48.726;8.892;2023-04-05T05:38:34;97122.50;;;8.97;37.63
31595;BME280;18200;48.726;8.892;2023-04-05T05:42:35;97135.34;;;9.68;37.78
31595;BME280;18200;48.726;8.892;2023-04-05T05:46:35;97129.34;;;10.26;36.36
31595;BME280;18200;48.726;8.892;2023-04-05T05:50:36;97126.91;;;10.64;35.45
31595;BME280;18200;48.726;8.892;2023-04-05T05:54:38;97132.22;;;10.33;35.26
31595;BME280;18200;48.726;8.892;2023-04-05T05:58:38;97132.47;;;10.00;35.93
31595;BME280;18200;48.726;8.892;2023-04-05T06:02:38;97134.78;;;10.02;36.07
31595;BME280;18200;48.726;8.892;2023-04-05T06:06:39;97124.88;;;10.61;35.94
31595;BME280;18200;48.726;8.892;2023-04-05T06:10:42;97132.16;;;10.45;35.30
31595;BME280;18200;48.726;8.892;2023-04-05T06:14:43;97135.19;;;10.16;36.07
31595;BME280;18200;48.726;8.892;2023-04-05T06:18:43;97132.56;;;10.32;36.07
31595;BME280;18200;48.726;8.892;2023-04-05T06:22:44;97131.03;;;10.46;35.87
31595;BME280;18200;48.726;8.892;2023-04-05T06:26:44;97133.03;;;10.80;34.75
31595;BME280;18200;48.726;8.892;2023-04-05T06:30:44;97129.81;;;10.59;35.24
31595;BME280;18200;48.726;8.892;2023-04-05T06:34:45;97131.41;;;11.42;35.12
31595;BME280;18200;48.726;8.892;2023-04-05T06:38:48;97133.66;;;11.40;34.54
31595;BME280;18200;48.726;8.892;2023-04-05T06:42:49;97137.88;;;11.56;34.66
31595;BME280;18200;48.726;8.892;2023-04-05T06:46:55;97133.66;;;11.40;34.62
31595;BME280;18200;48.726;8.892;2023-04-05T06:50:59;97124.19;;;12.00;34.42
31595;BME280;18200;48.726;8.892;2023-04-05T06:55:00;97128.50;;;12.23;33.24
31595;BME280;18200;48.726;8.892;2023-04-05T06:59:00;97126.16;;;12.64;33.02
31595;BME280;18200;48.726;8.892;2023-04-05T07:03:01;97131.00;;;12.77;32.72
31595;BME280;18200;48.726;8.892;2023-04-05T07:07:02;97128.78;;;12.83;32.22
31595;BME280;18200;48.726;8.892;2023-04-05T07:11:03;97136.13;;;13.05;31.97
31595;BME280;18200;48.726;8.892;2023-04-05T07:15:03;97127.81;;;13.17;31.39
31595;BME280;18200;48.726;8.892;2023-04-05T07:19:04;97131.22;;;13.37;31.25
31595;BME280;18200;48.726;8.892;2023-04-05T07:23:05;97131.88;;;13.56;30.11
31595;BME280;18200;48.726;8.892;2023-04-05T07:27:06;97116.91;;;13.92;30.49
31595;BME280;18200;48.726;8.892;2023-04-05T07:31:06;97126.19;;;13.94;30.81
31595;BME280;18200;48.726;8.892;2023-04-05T07:35:07;97129.78;;;14.06;30.72
31595;BME280;18200;48.726;8.892;2023-04-05T07:39:07;97128.66;;;14.40;30.57
31595;BME280;18200;48.726;8.892;2023-04-05T07:43:08;97132.75;;;14.27;30.71
31595;BME280;18200;48.726;8.892;2023-04-05T07:47:08;97130.53;;;14.02;30.75
31595;BME280;18200;48.726;8.892;2023-04-05T07:51:09;97130.16;;;14.34;30.32
31595;BME280;18200;48.726;8.892;2023-04-05T07:55:10;97126.19;;;14.28;28.66
31595;BME280;18200;48.726;8.892;2023-04-05T07:59:12;97128.22;;;14.71;28.15
31595;BME280;18200;48.726;8.892;2023-04-05T08:03:12;97129.94;;;14.93;27.10
31595;BME280;18200;48.726;8.892;2023-04-05T08:07:12;97141.47;;;15.34;26.28
31595;BME280;18200;48.726;8.892;2023-04-05T08:11:13;97138.13;;;15.04;26.94
31595;BME280;18200;48.726;8.892;2023-04-05T08:15:13;97134.13;;;15.34;26.60
31595;BME280;18200;48.726;8.892;2023-04-05T08:19:13;97139.22;;;16.15;24.20
31595;BME280;18200;48.726;8.892;2023-04-05T08:23:14;97134.28;;;16.45;23.88
31595;BME280;18200;48.726;8.892;2023-04-05T08:27:14;97132.47;;;16.98;23.71
31595;BME280;18200;48.726;8.892;2023-04-05T08:31:15;97139.03;;;15.73;23.75
31595;BME280;18200;48.726;8.892;2023-04-05T08:35:15;97132.19;;;16.00;23.95
31595;BME280;18200;48.726;8.892;2023-04-05T08:39:15;97134.84;;;15.24;25.11
31595;BME280;18200;48.726;8.892;2023-04-05T08:43:27;97134.00;;;15.17;25.97
31595;BME280;18200;48.726;8.892;2023-04-05T08:47:33;97145.13;;;13.94;27.00
31595;BME280;18200;48.726;8.892;2023-04-05T08:51:36;97130.81;;;16.41;24.91
31595;BME280;18200;48.726;8.892;2023-04-05T08:55:38;97130.16;;;15.21;25.54
31595;BME280;18200;48.726;8.892;2023-04-05T08:59:40;97130.84;;;17.75;23.30
31595;BME280;18200;48.726;8.892;2023-04-05T09:03:42;97128.56;;;16.64;23.80
31595;BME280;18200;48.726;8.892;2023-04-05T09:07:43;97129.38;;;16.96;23.92
31595;BME280;18200;48.726;8.892;2023-04-05T09:11:47;97120.34;;;17.80;23.35
31595;BME280;18200;48.726;8.892;2023-04-05T09:15:47;97126.28;;;17.16;23.14
31595;BME280;18200;48.726;8.892;2023-04-05T09:19:48;97127.28;;;18.03;22.40
31595;BME280;18200;48.726;8.892;2023-04-05T09:23:53;97126.50;;;18.82;21.18
31595;BME280;18200;48.726;8.892;2023-04-05T09:27:54;97132.91;;;18.43;21.73
31595;BME280;18200;48.726;8.892;2023-04-05T09:32:00;97130.31;;;18.91;20.47
31595;BME280;18200;48.726;8.892;2023-04-05T09:36:00;97121.56;;;17.55;22.37
31595;BME280;18200;48.726;8.892;2023-04-05T09:40:03;97118.88;;;19.58;19.96
31595;BME280;18200;48.726;8.892;2023-04-05T09:44:04;97129.75;;;18.55;21.34
31595;BME280;18200;48.726;8.892;2023-04-05T09:48:05;97125.22;;;18.31;20.80
31595;BME280;18200;48.726;8.892;2023-04-05T09:52:17;97124.28;;;17.48;22.28
31595;BME280;18200;48.726;8.892;2023-04-05T09:56:17;97115.00;;;17.56;21.70
31595;BME280;18200;48.726;8.892;2023-04-05T10:00:19;97117.00;;;18.42;21.63
31595;BME280;18200;48.726;8.892;2023-04-05T10:04:20;97103.34;;;19.89;20.60
31595;BME280;18200;48.726;8.892;2023-04-05T10:08:22;97107.28;;;19.47;20.38
31595;BME280;18200;48.726;8.892;2023-04-05T10:12:25;97108.00;;;18.55;20.59
31595;BME280;18200;48.726;8.892;2023-04-05T10:16:27;97099.88;;;20.19;19.89
31595;BME280;18200;48.726;8.892;2023-04-05T10:20:29;97089.38;;;19.83;19.85
31595;BME280;18200;48.726;8.892;2023-04-05T10:24:33;97086.78;;;20.37;18.99
31595;BME280;18200;48.726;8.892;2023-04-05T10:28:42;97091.47;;;20.02;19.12
31595;BME280;18200;48.726;8.892;2023-04-05T10:32:54;97084.22;;;19.92;19.65
31595;BME280;18200;48.726;8.892;2023-04-05T10:37:02;97089.00;;;20.45;18.95
31595;BME280;18200;48.726;8.892;2023-04-05T10:41:11;97086.47;;;21.11;18.63
31595;BME280;18200;48.726;8.892;2023-04-05T10:45:12;97081.69;;;21.38;17.83
31595;BME280;18200;48.726;8.892;2023-04-05T10:49:45;97091.78;;;20.68;18.49
31595;BME280;18200;48.726;8.892;2023-04-05T10:53:46;97089.69;;;20.53;18.81
31595;BME280;18200;48.726;8.892;2023-04-05T10:57:48;97081.09;;;21.93;17.40
31595;BME280;18200;48.726;8.892;2023-04-05T11:01:49;97085.00;;;21.49;18.07
31595;BME280;18200;48.726;8.892;2023-04-05T11:05:50;97081.31;;;20.37;19.34
31595;BME280;18200;48.726;8.892;2023-04-05T11:10:01;97073.78;;;21.44;18.00
31595;BME280;18200;48.726;8.892;2023-04-05T11:14:16;97068.81;;;20.39;19.51
31595;BME280;18200;48.726;8.892;2023-04-05T11:22:28;97063.97;;;21.04;18.59
31595;BME280;18200;48.726;8.892;2023-04-05T11:30:48;97066.81;;;18.53;20.69
31595;BME280;18200;48.726;8.892;2023-04-05T11:34:58;97060.81;;;19.95;19.30
31595;BME280;18200;48.726;8.892;2023-04-05T11:43:26;97056.03;;;20.59;18.62
31595;BME280;18200;48.726;8.892;2023-04-05T11:47:26;97047.28;;;19.51;19.76
31595;BME280;18200;48.726;8.892;2023-04-05T11:51:28;97041.38;;;19.89;18.59
31595;BME280;18200;48.726;8.892;2023-04-05T11:55:28;97042.47;;;20.79;17.61
31595;BME280;18200;48.726;8.892;2023-04-05T11:59:30;97041.34;;;22.05;17.83
31595;BME280;18200;48.726;8.892;2023-04-05T12:03:32;97032.28;;;20.30;19.04
31595;BME280;18200;48.726;8.892;2023-04-05T12:07:32;97035.63;;;18.65;20.07
31595;BME280;18200;48.726;8.892;2023-04-05T12:11:36;97030.44;;;21.42;17.96
31595;BME280;18200;48.726;8.892;2023-04-05T12:15:40;97019.34;;;23.25;16.24
31595;BME280;18200;48.726;8.892;2023-04-05T12:19:41;97017.69;;;24.13;16.28
31595;BME280;18200;48.726;8.892;2023-04-05T12:23:41;97015.19;;;24.06;16.07
31595;BME280;18200;48.726;8.892;2023-04-05T12:27:42;97016.94;;;22.30;17.31
31595;BME280;18200;48.726;8.892;2023-04-05T12:31:44;97013.94;;;19.73;19.74
31595;BME280;18200;48.726;8.892;2023-04-05T12:35:45;97014.88;;;23.47;16.24
31595;BME280;18200;48.726;8.892;2023-04-05T12:39:45;97013.94;;;22.60;17.38
31595;BME280;18200;48.726;8.892;2023-04-05T12:43:46;97007.88;;;21.78;19.51
31595;BME280;18200;48.726;8.892;2023-04-05T12:47:59;97016.19;;;19.48;19.14
31595;BME280;18200;48.726;8.892;2023-04-05T12:51:59;97004.41;;;18.77;20.05
31595;BME280;18200;48.726;8.892;2023-04-05T12:56:05;96998.16;;;20.45;19.01
31595;BME280;18200;48.726;8.892;2023-04-05T13:00:06;96995.81;;;21.16;19.04
31595;BME280;18200;48.726;8.892;2023-04-05T13:04:08;96992.97;;;22.18;17.85
31595;BME280;18200;48.726;8.892;2023-04-05T13:08:08;96985.22;;;23.83;16.18
31595;BME280;18200;48.726;8.892;2023-04-05T13:12:08;96992.47;;;21.68;17.87
31595;BME280;18200;48.726;8.892;2023-04-05T13:16:09;96972.66;;;24.48;17.00
31595;BME280;18200;48.726;8.892;2023-04-05T13:20:11;96980.53;;;22.97;17.31
31595;BME280;18200;48.726;8.892;2023-04-05T13:24:11;96969.72;;;23.64;16.49
31595;BME280;18200;48.726;8.892;2023-04-05T13:28:12;96963.25;;;23.13;16.57
31595;BME280;18200;48.726;8.892;2023-04-05T13:32:12;96952.50;;;23.06;17.42
31595;BME280;18200;48.726;8.892;2023-04-05T13:36:13;96958.25;;;22.47;18.11
31595;BME280;18200;48.726;8.892;2023-04-05T13:40:13;96952.78;;;22.79;17.84
31595;BME280;18200;48.726;8.892;2023-04-05T13:44:14;96951.09;;;25.40;16.16
31595;BME280;18200;48.726;8.892;2023-04-05T13:48:14;96962.19;;;22.14;18.48
31595;BME280;18200;48.726;8.892;2023-04-05T13:52:15;96949.25;;;21.79;19.05
31595;BME280;18200;48.726;8.892;2023-04-05T13:56:17;96938.88;;;24.73;16.42
31595;BME280;18200;48.726;8.892;2023-04-05T14:00:17;96934.63;;;23.97;16.33
31595;BME280;18200;48.726;8.892;2023-04-05T14:04:18;96944.31;;;22.25;17.59
31595;BME280;18200;48.726;8.892;2023-04-05T14:08:18;96939.63;;;22.42;18.89
31595;BME280;18200;48.726;8.892;2023-04-05T14:12:18;96932.75;;;23.27;17.67
31595;BME280;18200;48.726;8.892;2023-04-05T14:16:19;96923.81;;;24.18;16.35
31595;BME280;18200;48.726;8.892;2023-04-05T14:20:19;96926.63;;;25.55;15.62
31595;BME280;18200;48.726;8.892;2023-04-05T14:24:20;96929.75;;;20.98;18.39
31595;BME280;18200;48.726;8.892;2023-04-05T14:28:20;96928.00;;;24.70;16.53
31595;BME280;18200;48.726;8.892;2023-04-05T14:32:24;96922.34;;;25.20;15.29
31595;BME280;18200;48.726;8.892;2023-04-05T14:36:25;96913.66;;;25.00;15.39
31595;BME280;18200;48.726;8.892;2023-04-05T14:40:26;96916.19;;;26.11;14.62
31595;BME280;18200;48.726;8.892;2023-04-05T14:44:26;96912.00;;;25.24;15.16
31595;BME280;18200;48.726;8.892;2023-04-05T14:48:27;96911.56;;;22.99;17.03
31595;BME280;18200;48.726;8.892;2023-04-05T14:52:29;96919.22;;;24.75;15.33
31595;BME280;18200;48.726;8.892;2023-04-05T14:56:29;96906.31;;;27.08;14.19
31595;BME280;18200;48.726;8.892;2023-04-05T15:00:30;96909.50;;;25.38;15.61
31595;BME280;18200;48.726;8.892;2023-04-05T15:04:30;96915.66;;;25.95;15.25
31595;BME280;18200;48.726;8.892;2023-04-05T15:08:31;96909.72;;;25.44;14.71
31595;BME280;18200;48.726;8.892;2023-04-05T15:12:31;96914.28;;;25.69;14.55
31595;BME280;18200;48.726;8.892;2023-04-05T15:16:32;96909.25;;;26.38;13.93
31595;BME280;18200;48.726;8.892;2023-04-05T15:20:33;96913.81;;;26.23;14.90
31595;BME280;18200;48.726;8.892;2023-04-05T15:24:38;96903.78;;;23.92;16.23
31595;BME280;18200;48.726;8.892;2023-04-05T15:28:41;96907.56;;;23.45;16.62
31595;BME280;18200;48.726;8.892;2023-04-05T15:32:42;96904.88;;;24.45;16.61
31595;BME280;18200;48.726;8.892;2023-04-05T15:36:42;96903.78;;;24.43;15.96
31595;BME280;18200;48.726;8.892;2023-04-05T15:40:45;96902.63;;;24.06;16.25
31595;BME280;18200;48.726;8.892;2023-04-05T15:44:49;96903.31;;;21.34;18.96
31595;BME280;18200;48.726;8.892;2023-04-05T15:48:50;96903.22;;;20.56;19.39
31595;BME280;18200;48.726;8.892;2023-04-05T15:52:50;96896.09;;;20.62;19.33
31595;BME280;18200;48.726;8.892;2023-04-05T15:56:50;96911.41;;;20.33;18.70
31595;BME280;18200;48.726;8.892;2023-04-05T16:00:51;96908.59;;;21.02;18.56
31595;BME280;18200;48.726;8.892;2023-04-05T16:04:51;96905.03;;;21.64;19.01
31595;BME280;18200;48.726;8.892;2023-04-05T16:08:52;96909.06;;;21.20;18.94
31595;BME280;18200;48.726;8.892;2023-04-05T16:12:52;96894.03;;;22.96;17.28
31595;BME280;18200;48.726;8.892;2023-04-05T16:16:53;96902.53;;;23.14;17.53
31595;BME280;18200;48.726;8.892;2023-04-05T16:20:54;96908.44;;;20.24;19.16
31595;BME280;18200;48.726;8.892;2023-04-05T16:24:54;96901.63;;;21.01;18.41
31595;BME280;18200;48.726;8.892;2023-04-05T16:28:55;96900.56;;;21.90;17.63
31595;BME280;18200;48.726;8.892;2023-04-05T16:32:57;96897.06;;;21.89;18.25
31595;BME280;18200;48.726;8.892;2023-04-05T16:36:57;96894.22;;;22.89;17.60
31595;BME280;18200;48.726;8.892;2023-04-05T16:40:57;96896.44;;;22.94;16.83
31595;BME280;18200;48.726;8.892;2023-04-05T16:44:58;96896.66;;;25.14;15.66
31595;BME280;18200;48.726;8.892;2023-04-05T16:48:58;96902.47;;;23.31;16.94
31595;BME280;18200;48.726;8.892;2023-04-05T16:52:59;96910.59;;;23.88;16.73
31595;BME280;18200;48.726;8.892;2023-04-05T16:56:59;96915.38;;;21.92;17.79
31595;BME280;18200;48.726;8.892;2023-04-05T17:01:00;96909.44;;;21.22;18.17
31595;BME280;18200;48.726;8.892;2023-04-05T17:05:00;96921.03;;;21.07;18.02
31595;BME280;18200;48.726;8.892;2023-04-05T17:09:00;96924.78;;;21.16;18.41
31595;BME280;18200;48.726;8.892;2023-04-05T17:13:01;96920.41;;;21.38;18.21
31595;BME280;18200;48.726;8.892;2023-04-05T17:17:01;96919.97;;;21.59;18.46
31595;BME280;18200;48.726;8.892;2023-04-05T17:21:02;96921.81;;;22.82;17.95
31595;BME280;18200;48.726;8.892;2023-04-05T17:25:02;96920.84;;;23.17;17.06
31595;BME280;18200;48.726;8.892;2023-04-05T17:29:04;96917.09;;;23.11;16.86
31595;BME280;18200;48.726;8.892;2023-04-05T17:33:05;96923.22;;;21.54;18.48
31595;BME280;18200;48.726;8.892;2023-04-05T17:37:05;96926.56;;;21.42;19.25
31595;BME280;18200;48.726;8.892;2023-04-05T17:41:06;96928.06;;;21.27;19.32
31595;BME280;18200;48.726;8.892;2023-04-05T17:45:07;96932.88;;;20.77;20.41
31595;BME280;18200;48.726;8.892;2023-04-05T17:49:07;96931.09;;;21.88;19.92
31595;BME280;18200;48.726;8.892;2023-04-05T17:53:08;96932.19;;;22.10;19.79
31595;BME280;18200;48.726;8.892;2023-04-05T17:57:08;96925.41;;;22.47;19.15
31595;BME280;18200;48.726;8.892;2023-04-05T18:01:14;96930.91;;;22.31;19.01
31595;BME280;18200;48.726;8.892;2023-04-05T18:05:14;96927.69;;;21.25;19.86
31595;BME280;18200;48.726;8.892;2023-04-05T18:09:15;96925.72;;;20.63;20.39
31595;BME280;18200;48.726;8.892;2023-04-05T18:13:15;96930.28;;;21.13;20.34
31595;BME280;18200;48.726;8.892;2023-04-05T18:17:16;96939.09;;;21.01;21.32
31595;BME280;18200;48.726;8.892;2023-04-05T18:21:16;96938.09;;;20.68;21.84
31595;BME280;18200;48.726;8.892;2023-04-05T18:25:17;96940.63;;;20.59;21.76
31595;BME280;18200;48.726;8.892;2023-04-05T18:29:17;96950.59;;;20.46;21.41
31595;BME280;18200;48.726;8.892;2023-04-05T18:33:18;96953.41;;;20.39;21.72
31595;BME280;18200;48.726;8.892;2023-04-05T18:37:18;96954.31;;;20.32;21.80
31595;BME280;18200;48.726;8.892;2023-04-05T18:41:18;96962.41;;;19.52;23.02
31595;BME280;18200;48.726;8.892;2023-04-05T18:45:19;96966.41;;;19.44;23.75
31595;BME280;18200;48.726;8.892;2023-04-05T18:49:19;96964.13;;;19.39;24.04
31595;BME280;18200;48.726;8.892;2023-04-05T18:53:21;96972.81;;;18.38;25.06
31595;BME280;18200;48.726;8.892;2023-04-05T18:57:21;96972.69;;;19.00;24.66
31595;BME280;18200;48.726;8.892;2023-04-05T19:01:21;96979.41;;;19.63;23.41
31595;BME280;18200;48.726;8.892;2023-04-05T19:05:22;96986.69;;;18.58;25.92
31595;BME280;18200;48.726;8.892;2023-04-05T19:09:23;96977.28;;;18.66;24.87
31595;BME280;18200;48.726;8.892;2023-04-05T19:13:23;96989.25;;;18.24;26.25
31595;BME280;18200;48.726;8.892;2023-04-05T19:17:24;96993.41;;;17.74;26.10
31595;BME280;18200;48.726;8.892;2023-04-05T19:21:24;96993.91;;;17.48;26.28
31595;BME280;18200;48.726;8.892;2023-04-05T19:25:25;96989.53;;;17.75;26.68
31595;BME280;18200;48.726;8.892;2023-04-05T19:29:25;96994.03;;;18.06;25.87
31595;BME280;18200;48.726;8.892;2023-04-05T19:33:28;96998.16;;;17.63;27.04
31595;BME280;18200;48.726;8.892;2023-04-05T19:37:29;96992.41;;;18.19;25.88
31595;BME280;18200;48.726;8.892;2023-04-05T19:41:30;96993.00;;;17.86;26.27
31595;BME280;18200;48.726;8.892;2023-04-05T19:45:31;97001.53;;;17.88;26.08
31595;BME280;18200;48.726;8.892;2023-04-05T19:49:35;97003.34;;;17.12;26.87
31595;BME280;18200;48.726;8.892;2023-04-05T19:53:49;97009.09;;;17.28;27.01
31595;BME280;18200;48.726;8.892;2023-04-05T19:57:49;97005.25;;;17.11;27.45
31595;BME280;18200;48.726;8.892;2023-04-05T20:01:50;96991.97;;;17.38;26.91
31595;BME280;18200;48.726;8.892;2023-04-05T20:10:12;97000.53;;;17.40;26.71
31595;BME280;18200;48.726;8.892;2023-04-05T20:14:14;97004.44;;;17.32;27.12
31595;BME280;18200;48.726;8.892;2023-04-05T20:18:22;97008.00;;;17.08;27.42
31595;BME280;18200;48.726;8.892;2023-04-05T20:22:22;97003.75;;;16.85;26.98
31595;BME280;18200;48.726;8.892;2023-04-05T20:26:29;97008.41;;;16.92;27.17
31595;BME280;18200;48.726;8.892;2023-04-05T20:30:30;97007.03;;;15.56;29.17
31595;BME280;18200;48.726;8.892;2023-04-05T20:34:33;97008.28;;;15.79;30.08
31595;BME280;18200;48.726;8.892;2023-04-05T20:38:38;97011.47;;;16.23;28.72
31595;BME280;18200;48.726;8.892;2023-04-05T20:42:39;97012.16;;;15.85;29.54
31595;BME280;18200;48.726;8.892;2023-04-05T20:46:40;97009.88;;;15.98;29.49
31595;BME280;18200;48.726;8.892;2023-04-05T20:50:40;97009.34;;;15.53;29.62
31595;BME280;18200;48.726;8.892;2023-04-05T20:54:41;96995.16;;;16.02;29.20
31595;BME280;18200;48.726;8.892;2023-04-05T20:58:41;97000.53;;;15.81;28.32
31595;BME280;18200;48.726;8.892;2023-04-05T21:02:41;97001.50;;;15.38;30.04
31595;BME280;18200;48.726;8.892;2023-04-05T21:06:42;96994.22;;;15.49;29.88
31595;BME280;18200;48.726;8.892;2023-04-05T21:10:42;96997.94;;;15.20;29.58
31595;BME280;18200;48.726;8.892;2023-04-05T21:14:43;97003.22;;;15.71;28.91
31595;BME280;18200;48.726;8.892;2023-04-05T21:18:43;97000.47;;;15.64;29.34
31595;BME280;18200;48.726;8.892;2023-04-05T21:22:43;97001.06;;;15.25;28.92
31595;BME280;18200;48.726;8.892;2023-04-05T21:26:44;97006.78;;;13.78;32.16
31595;BME280;18200;48.726;8.892;2023-04-05T21:30:45;97002.94;;;13.16;32.86
31595;BME280;18200;48.726;8.892;2023-04-05T21:34:45;96997.56;;;14.60;31.90
31595;BME280;18200;48.726;8.892;2023-04-05T21:38:46;96999.81;;;15.09;30.58
31595;BME280;18200;48.726;8.892;2023-04-05T21:42:46;96997.91;;;15.16;30.21
31595;BME280;18200;48.726;8.892;2023-04-05T21:46:46;96998.50;;;14.85;30.05
31595;BME280;18200;48.726;8.892;2023-04-05T21:50:47;96995.31;;;14.69;30.01
31595;BME280;18200;48.726;8.892;2023-04-05T21:54:47;97000.50;;;14.41;30.33